Time,TemperatureF,DewpointF,PressureIn,WindDirection,WindDirectionDegrees,WindSpeedMPH,WindSpeedGustMPH,Humidity,HourlyPrecipIn,Conditions,Clouds,dailyrainin,SoftwareType,DateUTC
2013-10-12 00:00:00,43.3,40.0,30.10,SSE,165,0.0,0.0,88,0.00,,,0.00,WeatherCatV1.20B785,2013-10-12 04:00:00,
2013-10-12 00:05:00,43.0,39.7,30.10,SSE,165,0.0,0.0,88,0.00,,,0.00,WeatherCatV1.20B785,2013-10-12 04:05:00,
2013-10-12 00:10:00,43.0,39.7,30.10,SSE,165,0.0,0.0,88,0.00,,,0.00,WeatherCatV1.20B785,2013-10-12 04:10:00,
2013-10-12 00:15:00,42.8,39.5,30.10,SSE,165,0.0,0.0,88,0.00,,,0.00,WeatherCatV1.20B785,2013-10-12 04:15:00,
2013-10-12 00:20:00,42.6,39.3,30.10,SSE,165,0.0,0.0,88,0.00,,,0.00,WeatherCatV1.20B785,2013-10-12 04:20:00,
2013-10-12 00:25:00,42.3,39.0,30.10,SSE,165,0.0,0.0,88,0.00,,,0.00,WeatherCatV1.20B785,2013-10-12 04:25:00,
2013-10-12 00:30:00,42.4,39.1,30.10,SSE,165,0.0,0.0,88,0.00,,,0.00,WeatherCatV1.20B785,2013-10-12 04:30:00,
2013-10-12 00:35:00,42.7,39.4,30.10,SSE,165,0.0,0.0,88,0.00,,,0.00,WeatherCatV1.20B785,2013-10-12 04:35:00,
2013-10-12 00:40:00,42.8,39.5,30.10,SSE,165,0.0,0.0,88,0.00,,,0.00,WeatherCatV1.20B785,2013-10-12 04:40:00,
2013-10-12 00:45:00,42.9,39.6,30.11,SSE,165,0.0,0.0,88,0.00,,,0.00,WeatherCatV1.20B785,2013-10-12 04:45:00,
2013-10-12 00:50:00,42.8,39.5,30.11,SSE,165,0.0,0.0,88,0.00,,,0.00,WeatherCatV1.20B785,2013-10-12 04:50:00,
2013-10-12 00:55:00,43.1,39.8,30.11,SSE,165,0.0,0.0,88,0.00,,,0.00,WeatherCatV1.20B785,2013-10-12 04:55:00,
2013-10-12 01:00:00,43.0,39.7,30.11,SSE,165,0.0,0.0,88,0.00,,,0.00,WeatherCatV1.20B785,2013-10-12 05:00:00,
2013-10-12 01:05:00,42.7,39.4,30.11,SSE,165,0.0,0.0,88,0.00,,,0.00,WeatherCatV1.20B785,2013-10-12 05:05:00,
2013-10-12 01:10:00,42.5,39.2,30.11,SSE,165,0.0,0.0,88,0.00,,,0.00,WeatherCatV1.20B785,2013-10-12 05:10:00,
2013-10-12 01:15:00,42.4,39.1,30.11,SSE,165,0.0,0.0,88,0.00,,,0.00,WeatherCatV1.20B785,2013-10-12 05:15:00,
2013-10-12 01:20:00,42.4,39.1,30.11,SSE,165,0.0,0.0,88,0.00,,,0.00,WeatherCatV1.20B785,2013-10-12 05:20:00,
2013-10-12 01:25:00,42.5,39.2,30.10,SSE,165,0.0,0.0,88,0.00,,,0.00,WeatherCatV1.20B785,2013-10-12 05:25:00,
2013-10-12 01:30:00,42.5,39.2,30.10,SSE,165,0.0,0.0,88,0.00,,,0.00,WeatherCatV1.20B785,2013-10-12 05:30:00,
2013-10-12 01:35:00,42.3,39.3,30.10,SSE,165,0.0,0.0,89,0.00,,,0.00,WeatherCatV1.20B785,2013-10-12 05:35:00,
2013-10-12 01:40:00,42.1,39.1,30.10,SSE,165,0.0,0.0,89,0.00,,,0.00,WeatherCatV1.20B785,2013-10-12 05:40:00,
2013-10-12 01:45:00,41.6,38.6,30.10,SSE,165,0.0,0.0,89,0.00,,,0.00,WeatherCatV1.20B785,2013-10-12 05:45:00,
2013-10-12 01:50:00,41.3,38.3,30.11,SSE,165,0.0,0.0,89,0.00,,,0.00,WeatherCatV1.20B785,2013-10-12 05:50:00,
2013-10-12 01:55:00,41.3,38.3,30.11,SSE,165,0.0,0.0,89,0.00,,,0.00,WeatherCatV1.20B785,2013-10-12 05:55:00,
2013-10-12 02:00:00,41.3,38.3,30.11,SSE,165,0.0,0.0,89,0.00,,,0.00,WeatherCatV1.20B785,2013-10-12 06:00:00,
2013-10-12 02:05:00,41.2,38.2,30.11,SSE,165,0.0,0.0,89,0.00,,,0.00,WeatherCatV1.20B785,2013-10-12 06:05:00,
2013-10-12 02:10:00,41.6,38.6,30.11,SSE,165,0.0,0.0,89,0.00,,,0.00,WeatherCatV1.20B785,2013-10-12 06:10:00,
2013-10-12 02:15:00,41.9,38.9,30.11,SSE,165,0.0,0.0,89,0.00,,,0.00,WeatherCatV1.20B785,2013-10-12 06:15:00,
2013-10-12 02:20:00,41.9,38.9,30.11,SSE,165,0.0,0.0,89,0.00,,,0.00,WeatherCatV1.20B785,2013-10-12 06:20:00,
2013-10-12 02:25:00,41.6,38.6,30.11,SSE,165,0.0,0.0,89,0.00,,,0.00,WeatherCatV1.20B785,2013-10-12 06:25:00,
2013-10-12 02:30:00,41.1,38.1,30.11,SSE,165,0.0,0.0,89,0.00,,,0.00,WeatherCatV1.20B785,2013-10-12 06:30:00,
2013-10-12 02:35:00,40.8,37.8,30.11,SSE,165,0.0,0.0,89,0.00,,,0.00,WeatherCatV1.20B785,2013-10-12 06:35:00,
2013-10-12 02:40:00,40.6,37.6,30.11,SSE,165,0.0,0.0,89,0.00,,,0.00,WeatherCatV1.20B785,2013-10-12 06:40:00,
2013-10-12 02:45:00,40.7,37.7,30.11,SSE,165,0.0,0.0,89,0.00,,,0.00,WeatherCatV1.20B785,2013-10-12 06:45:00,
2013-10-12 02:50:00,40.8,37.8,30.11,SSE,165,0.0,0.0,89,0.00,,,0.00,WeatherCatV1.20B785,2013-10-12 06:50:00,
2013-10-12 02:55:00,40.4,37.4,30.11,SSE,165,0.0,0.0,89,0.00,,,0.00,WeatherCatV1.20B785,2013-10-12 06:55:00,
2013-10-12 03:00:00,40.4,37.4,30.11,SSE,165,0.0,0.0,89,0.00,,,0.00,WeatherCatV1.20B785,2013-10-12 07:00:00,
2013-10-12 03:05:00,40.5,37.5,30.11,SSE,165,0.0,0.0,89,0.00,,,0.00,WeatherCatV1.20B785,2013-10-12 07:05:00,
2013-10-12 03:10:00,40.6,37.6,30.11,SSE,165,0.0,0.0,89,0.00,,,0.00,WeatherCatV1.20B785,2013-10-12 07:10:00,
2013-10-12 03:15:00,40.6,37.6,30.11,SSE,165,0.0,0.0,89,0.00,,,0.00,WeatherCatV1.20B785,2013-10-12 07:15:00,
2013-10-12 03:20:00,40.1,37.1,30.11,SSE,165,0.0,0.0,89,0.00,,,0.00,WeatherCatV1.20B785,2013-10-12 07:20:00,
2013-10-12 03:25:00,40.1,37.1,30.11,SSE,165,0.0,0.0,89,0.00,,,0.00,WeatherCatV1.20B785,2013-10-12 07:25:00,
2013-10-12 03:30:00,40.1,37.1,30.11,SSE,165,0.0,0.0,89,0.00,,,0.00,WeatherCatV1.20B785,2013-10-12 07:30:00,
2013-10-12 03:35:00,40.3,37.3,30.11,SSE,165,0.0,0.0,89,0.00,,,0.00,WeatherCatV1.20B785,2013-10-12 07:35:00,
2013-10-12 03:40:00,40.2,37.2,30.11,SSE,165,0.0,0.0,89,0.00,,,0.00,WeatherCatV1.20B785,2013-10-12 07:40:00,
2013-10-12 03:45:00,40.0,37.0,30.11,SSE,165,0.0,0.0,89,0.00,,,0.00,WeatherCatV1.20B785,2013-10-12 07:45:00,
2013-10-12 03:50:00,39.9,36.9,30.11,SSE,165,0.0,0.0,89,0.00,,,0.00,WeatherCatV1.20B785,2013-10-12 07:50:00,
2013-10-12 03:55:00,39.9,36.9,30.11,SSE,164,0.0,0.0,89,0.00,,,0.00,WeatherCatV1.20B785,2013-10-12 07:55:00,
2013-10-12 04:00:00,40.1,37.1,30.11,SSE,164,0.0,0.0,89,0.00,,,0.00,WeatherCatV1.20B785,2013-10-12 08:00:00,
2013-10-12 04:05:00,40.4,37.4,30.11,SSE,164,0.0,0.0,89,0.00,,,0.00,WeatherCatV1.20B785,2013-10-12 08:05:00,
2013-10-12 04:10:00,40.6,37.6,30.11,SSE,164,0.0,0.0,89,0.00,,,0.00,WeatherCatV1.20B785,2013-10-12 08:10:00,
2013-10-12 04:15:00,40.8,37.8,30.11,SSE,164,0.0,0.0,89,0.00,,,0.00,WeatherCatV1.20B785,2013-10-12 08:15:00,
2013-10-12 04:20:00,41.0,38.0,30.11,SSE,164,0.0,0.0,89,0.00,,,0.00,WeatherCatV1.20B785,2013-10-12 08:20:00,
2013-10-12 04:25:00,41.1,38.1,30.11,SSE,164,0.0,0.0,89,0.00,,,0.00,WeatherCatV1.20B785,2013-10-12 08:25:00,
2013-10-12 04:30:00,41.0,38.0,30.11,SSE,164,0.0,0.0,89,0.00,,,0.00,WeatherCatV1.20B785,2013-10-12 08:30:00,
2013-10-12 04:35:00,40.8,37.8,30.11,SSE,164,0.0,0.0,89,0.00,,,0.00,WeatherCatV1.20B785,2013-10-12 08:35:00,
2013-10-12 04:40:00,40.6,37.6,30.12,SSE,164,0.0,0.0,89,0.00,,,0.00,WeatherCatV1.20B785,2013-10-12 08:40:00,
2013-10-12 04:45:00,40.4,37.4,30.12,SSE,164,0.0,0.0,89,0.00,,,0.00,WeatherCatV1.20B785,2013-10-12 08:45:00,
2013-10-12 04:50:00,40.2,37.2,30.12,SSE,164,0.0,0.0,89,0.00,,,0.00,WeatherCatV1.20B785,2013-10-12 08:50:00,
2013-10-12 04:55:00,40.3,37.3,30.12,SSE,164,0.0,0.0,89,0.00,,,0.00,WeatherCatV1.20B785,2013-10-12 08:55:00,
2013-10-12 05:00:00,40.2,37.2,30.12,SSE,164,0.0,0.0,89,0.00,,,0.00,WeatherCatV1.20B785,2013-10-12 09:00:00,
2013-10-12 05:05:00,40.1,37.1,30.12,SSE,164,0.0,0.0,89,0.00,,,0.00,WeatherCatV1.20B785,2013-10-12 09:05:00,
2013-10-12 05:10:00,40.3,37.3,30.12,SSE,164,0.0,0.0,89,0.00,,,0.00,WeatherCatV1.20B785,2013-10-12 09:10:00,
2013-10-12 05:15:00,40.5,37.5,30.12,SSE,164,0.0,0.0,89,0.00,,,0.00,WeatherCatV1.20B785,2013-10-12 09:15:00,
2013-10-12 05:20:00,40.4,37.4,30.12,SSE,164,0.0,0.0,89,0.00,,,0.00,WeatherCatV1.20B785,2013-10-12 09:20:00,
2013-10-12 05:25:00,40.4,37.4,30.13,SSE,164,0.0,0.0,89,0.00,,,0.00,WeatherCatV1.20B785,2013-10-12 09:25:00,
2013-10-12 05:30:00,40.5,37.5,30.13,SSE,164,0.0,0.0,89,0.00,,,0.00,WeatherCatV1.20B785,2013-10-12 09:30:00,
2013-10-12 05:35:00,40.7,37.7,30.13,SSE,164,0.0,0.0,89,0.00,,,0.00,WeatherCatV1.20B785,2013-10-12 09:35:00,
2013-10-12 05:40:00,40.9,37.9,30.13,SSE,164,0.0,0.0,89,0.00,,,0.00,WeatherCatV1.20B785,2013-10-12 09:40:00,
2013-10-12 05:45:00,41.2,38.2,30.13,SSE,164,0.0,0.0,89,0.00,,,0.00,WeatherCatV1.20B785,2013-10-12 09:45:00,
2013-10-12 05:50:00,41.5,38.5,30.13,SSE,164,0.0,0.0,89,0.00,,,0.00,WeatherCatV1.20B785,2013-10-12 09:50:00,
2013-10-12 05:55:00,41.8,38.8,30.14,SSE,164,0.0,0.0,89,0.00,,,0.00,WeatherCatV1.20B785,2013-10-12 09:55:00,
2013-10-12 06:00:00,42.0,39.0,30.14,SSE,164,0.0,0.0,89,0.00,,,0.00,WeatherCatV1.20B785,2013-10-12 10:00:00,
2013-10-12 06:05:00,42.1,39.1,30.14,SSE,164,0.0,0.0,89,0.00,,,0.00,WeatherCatV1.20B785,2013-10-12 10:05:00,
2013-10-12 06:10:00,42.1,39.1,30.14,SSE,164,0.0,0.0,89,0.00,,,0.00,WeatherCatV1.20B785,2013-10-12 10:10:00,
2013-10-12 06:15:00,42.0,39.0,30.14,SSE,164,0.0,0.0,89,0.00,,,0.00,WeatherCatV1.20B785,2013-10-12 10:15:00,
2013-10-12 06:20:00,42.0,39.0,30.14,SSE,164,0.0,0.0,89,0.00,,,0.00,WeatherCatV1.20B785,2013-10-12 10:20:00,
2013-10-12 06:25:00,41.9,38.9,30.14,SSE,164,0.0,0.0,89,0.00,,,0.00,WeatherCatV1.20B785,2013-10-12 10:25:00,
2013-10-12 06:30:00,41.9,38.9,30.14,SSE,164,0.0,0.0,89,0.00,,,0.00,WeatherCatV1.20B785,2013-10-12 10:30:00,
2013-10-12 06:35:00,41.8,38.8,30.14,SSE,164,0.0,0.0,89,0.00,,,0.00,WeatherCatV1.20B785,2013-10-12 10:35:00,
2013-10-12 06:40:00,41.7,38.7,30.14,SSE,164,0.0,0.0,89,0.00,,,0.00,WeatherCatV1.20B785,2013-10-12 10:40:00,
2013-10-12 06:45:00,41.6,38.6,30.15,SSE,164,0.0,0.0,89,0.00,,,0.00,WeatherCatV1.20B785,2013-10-12 10:45:00,
2013-10-12 06:50:00,41.3,38.3,30.15,SSE,164,0.0,0.0,89,0.00,,,0.00,WeatherCatV1.20B785,2013-10-12 10:50:00,
2013-10-12 06:55:00,41.1,38.1,30.15,SSE,164,0.0,0.0,89,0.00,,,0.00,WeatherCatV1.20B785,2013-10-12 10:55:00,
2013-10-12 07:00:00,41.0,38.0,30.15,SSE,164,0.0,0.0,89,0.00,,,0.00,WeatherCatV1.20B785,2013-10-12 11:00:00,
2013-10-12 07:05:00,40.8,37.8,30.15,SSE,164,0.0,0.0,89,0.00,,,0.00,WeatherCatV1.20B785,2013-10-12 11:05:00,
2013-10-12 07:10:00,40.9,37.9,30.15,SSE,164,0.0,0.0,89,0.00,,,0.00,WeatherCatV1.20B785,2013-10-12 11:10:00,
2013-10-12 07:15:00,40.9,37.9,30.15,SSE,164,0.0,0.0,89,0.00,,,0.00,WeatherCatV1.20B785,2013-10-12 11:15:00,
2013-10-12 07:20:00,40.9,37.9,30.15,SSE,164,0.0,0.0,89,0.00,,,0.00,WeatherCatV1.20B785,2013-10-12 11:20:00,
2013-10-12 07:25:00,40.9,37.9,30.15,SSE,164,0.0,0.0,89,0.00,,,0.00,WeatherCatV1.20B785,2013-10-12 11:25:00,
2013-10-12 07:30:00,40.9,37.9,30.15,SSE,164,0.0,0.0,89,0.00,,,0.00,WeatherCatV1.20B785,2013-10-12 11:30:00,
2013-10-12 07:35:00,40.9,37.9,30.15,SSE,164,0.0,0.0,89,0.00,,,0.00,WeatherCatV1.20B785,2013-10-12 11:35:00,
2013-10-12 07:40:00,40.9,37.9,30.15,SSE,164,0.0,0.0,89,0.00,,,0.00,WeatherCatV1.20B785,2013-10-12 11:40:00,
2013-10-12 07:45:00,41.1,38.1,30.15,SSE,162,0.0,0.0,89,0.00,,,0.00,WeatherCatV1.20B785,2013-10-12 11:45:00,
2013-10-12 07:50:00,41.2,38.2,30.15,SSE,160,0.0,0.0,89,0.00,,,0.00,WeatherCatV1.20B785,2013-10-12 11:50:00,
2013-10-12 07:55:00,41.3,38.3,30.16,SSE,159,0.0,0.0,89,0.00,,,0.00,WeatherCatV1.20B785,2013-10-12 11:55:00,
2013-10-12 08:00:00,41.3,38.3,30.16,SSE,159,0.0,0.0,89,0.00,,,0.00,WeatherCatV1.20B785,2013-10-12 12:00:00,
2013-10-12 08:05:00,41.6,38.6,30.16,SSE,159,0.0,0.0,89,0.00,,,0.00,WeatherCatV1.20B785,2013-10-12 12:05:00,
2013-10-12 08:10:00,42.0,39.0,30.16,SSE,159,0.0,0.0,89,0.00,,,0.00,WeatherCatV1.20B785,2013-10-12 12:10:00,
2013-10-12 08:15:00,42.8,39.8,30.16,SSE,159,0.0,0.0,89,0.00,,,0.00,WeatherCatV1.20B785,2013-10-12 12:15:00,
2013-10-12 08:20:00,43.8,40.8,30.16,SSE,159,0.0,0.0,89,0.00,,,0.00,WeatherCatV1.20B785,2013-10-12 12:20:00,
2013-10-12 08:25:00,44.3,41.3,30.16,SE,134,0.0,1.0,89,0.00,,,0.00,WeatherCatV1.20B785,2013-10-12 12:25:00,
2013-10-12 08:30:00,44.5,41.5,30.16,ESE,114,0.0,0.0,89,0.00,,,0.00,WeatherCatV1.20B785,2013-10-12 12:30:00,
2013-10-12 08:35:00,44.7,41.7,30.16,ESE,110,0.0,0.0,89,0.00,,,0.00,WeatherCatV1.20B785,2013-10-12 12:35:00,
2013-10-12 08:40:00,44.8,41.8,30.16,ESE,108,0.0,0.0,89,0.00,,,0.00,WeatherCatV1.20B785,2013-10-12 12:40:00,
2013-10-12 08:45:00,45.0,42.0,30.16,ESE,108,0.0,0.0,89,0.00,,,0.00,WeatherCatV1.20B785,2013-10-12 12:45:00,
2013-10-12 08:50:00,45.5,42.5,30.16,ESE,120,0.0,0.0,89,0.00,,,0.00,WeatherCatV1.20B785,2013-10-12 12:50:00,
2013-10-12 08:55:00,45.9,42.8,30.16,SE,142,0.0,0.0,89,0.00,,,0.00,WeatherCatV1.20B785,2013-10-12 12:55:00,
2013-10-12 09:00:00,46.3,43.2,30.16,SSE,150,0.0,0.0,89,0.00,,,0.00,WeatherCatV1.20B785,2013-10-12 13:00:00,
2013-10-12 09:05:00,46.6,43.5,30.16,SSE,158,0.0,0.0,89,0.00,,,0.00,WeatherCatV1.20B785,2013-10-12 13:05:00,
2013-10-12 09:10:00,47.0,43.9,30.16,SSE,161,0.0,0.0,89,0.00,,,0.00,WeatherCatV1.20B785,2013-10-12 13:10:00,
2013-10-12 09:15:00,47.6,44.5,30.16,SE,140,0.0,0.0,89,0.00,,,0.00,WeatherCatV1.20B785,2013-10-12 13:15:00,
2013-10-12 09:20:00,48.3,45.2,30.16,SE,128,0.0,0.0,89,0.00,,,0.00,WeatherCatV1.20B785,2013-10-12 13:20:00,
2013-10-12 09:25:00,49.1,46.0,30.15,ESE,103,0.0,0.0,89,0.00,,,0.00,WeatherCatV1.20B785,2013-10-12 13:25:00,
2013-10-12 09:30:00,50.1,47.0,30.15,East,86,0.0,1.0,89,0.00,,,0.00,WeatherCatV1.20B785,2013-10-12 13:30:00,
2013-10-12 09:35:00,51.1,48.0,30.15,East,84,1.0,2.0,89,0.00,,,0.00,WeatherCatV1.20B785,2013-10-12 13:35:00,
2013-10-12 09:40:00,52.3,49.2,30.15,East,87,1.0,2.0,89,0.00,,,0.00,WeatherCatV1.20B785,2013-10-12 13:40:00,
2013-10-12 09:45:00,53.3,49.5,30.15,East,86,1.0,3.0,87,0.00,,,0.00,WeatherCatV1.20B785,2013-10-12 13:45:00,
2013-10-12 09:50:00,54.3,50.2,30.15,East,81,1.0,2.0,86,0.00,,,0.00,WeatherCatV1.20B785,2013-10-12 13:50:00,
2013-10-12 09:55:00,55.2,50.5,30.15,East,85,1.0,3.0,84,0.00,,,0.00,WeatherCatV1.20B785,2013-10-12 13:55:00,
2013-10-12 10:00:00,56.3,51.2,30.15,East,95,1.0,4.0,83,0.00,,,0.00,WeatherCatV1.20B785,2013-10-12 14:00:00,
2013-10-12 10:05:00,57.3,52.2,30.15,ESE,109,1.0,4.0,83,0.00,,,0.00,WeatherCatV1.20B785,2013-10-12 14:05:00,
2013-10-12 10:10:00,58.1,52.3,30.15,East,101,2.0,2.0,81,0.00,,,0.00,WeatherCatV1.20B785,2013-10-12 14:10:00,
2013-10-12 10:15:00,58.7,52.5,30.15,SE,129,2.0,4.0,80,0.00,,,0.00,WeatherCatV1.20B785,2013-10-12 14:15:00,
2013-10-12 10:20:00,59.6,53.4,30.14,SE,137,2.0,3.0,80,0.00,,,0.00,WeatherCatV1.20B785,2013-10-12 14:20:00,
2013-10-12 10:25:00,60.3,53.8,30.14,SE,139,2.0,4.0,79,0.00,,,0.00,WeatherCatV1.20B785,2013-10-12 14:25:00,
2013-10-12 10:30:00,60.8,54.2,30.14,SE,132,2.0,3.0,79,0.00,,,0.00,WeatherCatV1.20B785,2013-10-12 14:30:00,
2013-10-12 10:35:00,61.2,54.3,30.14,SE,130,2.0,4.0,78,0.00,,,0.00,WeatherCatV1.20B785,2013-10-12 14:35:00,
2013-10-12 10:40:00,61.7,54.4,30.14,SE,130,2.0,4.0,77,0.00,,,0.00,WeatherCatV1.20B785,2013-10-12 14:40:00,
2013-10-12 10:45:00,62.0,54.0,30.14,SE,126,2.0,5.0,75,0.00,,,0.00,WeatherCatV1.20B785,2013-10-12 14:45:00,
2013-10-12 10:50:00,61.9,53.9,30.14,SE,125,2.0,5.0,75,0.00,,,0.00,WeatherCatV1.20B785,2013-10-12 14:50:00,
2013-10-12 10:55:00,62.0,54.3,30.14,SE,127,1.0,2.0,76,0.00,,,0.00,WeatherCatV1.20B785,2013-10-12 14:55:00,
2013-10-12 11:00:00,62.1,54.4,30.14,ESE,107,1.0,2.0,76,0.00,,,0.00,WeatherCatV1.20B785,2013-10-12 15:00:00,
2013-10-12 11:05:00,62.5,54.8,30.14,ESE,115,1.0,2.0,76,0.00,,,0.00,WeatherCatV1.20B785,2013-10-12 15:05:00,
2013-10-12 11:10:00,63.3,55.6,30.14,East,101,1.0,2.0,76,0.00,,,0.00,WeatherCatV1.20B785,2013-10-12 15:10:00,
2013-10-12 11:15:00,63.8,55.3,30.14,ESE,107,1.0,4.0,74,0.00,,,0.00,WeatherCatV1.20B785,2013-10-12 15:15:00,
2013-10-12 11:20:00,64.4,55.9,30.14,ESE,113,1.0,1.0,74,0.00,,,0.00,WeatherCatV1.20B785,2013-10-12 15:20:00,
2013-10-12 11:25:00,65.0,56.1,30.13,ESE,123,1.0,4.0,73,0.00,,,0.00,WeatherCatV1.20B785,2013-10-12 15:25:00,
2013-10-12 11:30:00,65.2,55.9,30.13,ESE,105,1.0,3.0,72,0.00,,,0.00,WeatherCatV1.20B785,2013-10-12 15:30:00,
2013-10-12 11:35:00,65.5,56.2,30.13,East,95,1.0,3.0,72,0.00,,,0.00,WeatherCatV1.20B785,2013-10-12 15:35:00,
2013-10-12 11:40:00,65.9,56.6,30.13,ESE,109,1.0,1.0,72,0.00,,,0.00,WeatherCatV1.20B785,2013-10-12 15:40:00,
2013-10-12 11:45:00,66.4,57.5,30.13,ESE,114,1.0,3.0,73,0.00,,,0.00,WeatherCatV1.20B785,2013-10-12 15:45:00,
2013-10-12 11:50:00,66.9,57.2,30.13,ESE,104,1.0,3.0,71,0.00,,,0.00,WeatherCatV1.20B785,2013-10-12 15:50:00,
2013-10-12 11:55:00,67.1,57.4,30.13,East,83,1.0,3.0,71,0.00,,,0.00,WeatherCatV1.20B785,2013-10-12 15:55:00,
2013-10-12 12:00:00,67.5,58.5,30.13,East,101,2.0,3.0,73,0.00,,,0.00,WeatherCatV1.20B785,2013-10-12 16:00:00,
2013-10-12 12:03:00,67.2,57.1,30.13,East,83,2.0,5.0,70,0.00,,,0.00,WeatherCatV1.20B785,2013-10-12 16:03:00,
2013-10-12 12:05:00,67.9,57.7,30.12,East,100,2.0,7.0,70,0.00,,,0.00,WeatherCatV1.20B785,2013-10-12 16:05:00,
2013-10-12 12:08:00,68.1,57.9,30.12,SE,132,1.0,2.0,70,0.00,,,0.00,WeatherCatV1.20B785,2013-10-12 16:08:00,
2013-10-12 12:10:00,68.2,58.0,30.12,ESE,118,1.0,2.0,70,0.00,,,0.00,WeatherCatV1.20B785,2013-10-12 16:10:00,
2013-10-12 12:13:00,68.5,58.7,30.12,SE,129,2.0,3.0,71,0.00,,,0.00,WeatherCatV1.20B785,2013-10-12 16:13:00,
2013-10-12 12:15:00,68.6,58.4,30.12,ESE,109,1.0,2.0,70,0.00,,,0.00,WeatherCatV1.20B785,2013-10-12 16:15:00,
2013-10-12 12:18:00,68.9,58.7,30.12,East,83,3.0,5.0,70,0.00,,,0.00,WeatherCatV1.20B785,2013-10-12 16:18:00,
2013-10-12 12:20:00,68.9,58.7,30.12,East,99,2.0,5.0,70,0.00,,,0.00,WeatherCatV1.20B785,2013-10-12 16:20:00,
2013-10-12 12:23:00,69.2,58.2,30.12,East,79,2.0,3.0,68,0.00,,,0.00,WeatherCatV1.20B785,2013-10-12 16:23:00,
2013-10-12 12:25:00,69.2,58.2,30.12,East,101,2.0,4.0,68,0.00,,,0.00,WeatherCatV1.20B785,2013-10-12 16:25:00,
2013-10-12 12:28:00,69.4,58.4,30.12,ENE,70,1.0,7.0,68,0.00,,,0.00,WeatherCatV1.20B785,2013-10-12 16:28:00,
2013-10-12 12:30:00,69.6,58.5,30.12,ESE,105,2.0,2.0,68,0.00,,,0.00,WeatherCatV1.20B785,2013-10-12 16:30:00,
2013-10-12 12:33:00,69.8,58.3,30.12,ESE,114,2.0,3.0,67,0.00,,,0.00,WeatherCatV1.20B785,2013-10-12 16:33:00,
2013-10-12 12:35:00,69.7,58.2,30.12,ESE,117,1.0,3.0,67,0.00,,,0.00,WeatherCatV1.20B785,2013-10-12 16:35:00,
2013-10-12 12:38:00,69.9,58.4,30.12,SE,132,1.0,2.0,67,0.00,,,0.00,WeatherCatV1.20B785,2013-10-12 16:38:00,
2013-10-12 12:40:00,70.0,58.5,30.12,East,93,1.0,1.0,67,0.00,,,0.00,WeatherCatV1.20B785,2013-10-12 16:40:00,
2013-10-12 12:43:00,70.2,58.3,30.12,ESE,119,1.0,2.0,66,0.00,,,0.00,WeatherCatV1.20B785,2013-10-12 16:43:00,
2013-10-12 12:45:00,70.3,58.8,30.12,ESE,104,1.0,5.0,67,0.00,,,0.00,WeatherCatV1.20B785,2013-10-12 16:45:00,
2013-10-12 12:48:00,70.3,58.8,30.12,ESE,108,1.0,4.0,67,0.00,,,0.00,WeatherCatV1.20B785,2013-10-12 16:48:00,
2013-10-12 12:50:00,70.3,58.4,30.12,East,91,2.0,4.0,66,0.00,,,0.00,WeatherCatV1.20B785,2013-10-12 16:50:00,
2013-10-12 12:53:00,70.5,58.2,30.12,SE,125,1.0,2.0,65,0.00,,,0.00,WeatherCatV1.20B785,2013-10-12 16:53:00,
2013-10-12 12:55:00,70.6,58.2,30.12,East,99,2.0,2.0,65,0.00,,,0.00,WeatherCatV1.20B785,2013-10-12 16:55:00,
2013-10-12 12:58:00,70.9,59.4,30.11,East,92,2.0,3.0,67,0.00,,,0.00,WeatherCatV1.20B785,2013-10-12 16:58:00,
2013-10-12 13:00:00,71.1,59.1,30.11,ESE,103,1.0,4.0,66,0.00,,,0.00,WeatherCatV1.20B785,2013-10-12 17:00:00,
2013-10-12 13:03:00,71.2,58.4,30.11,East,83,4.0,5.0,64,0.00,,,0.00,WeatherCatV1.20B785,2013-10-12 17:03:00,
2013-10-12 13:05:00,71.2,58.8,30.11,East,98,2.0,2.0,65,0.00,,,0.00,WeatherCatV1.20B785,2013-10-12 17:05:00,
2013-10-12 13:08:00,71.4,59.4,30.11,East,94,1.0,3.0,66,0.00,,,0.00,WeatherCatV1.20B785,2013-10-12 17:08:00,
2013-10-12 13:10:00,71.5,59.5,30.11,ESE,108,2.0,4.0,66,0.00,,,0.00,WeatherCatV1.20B785,2013-10-12 17:10:00,
2013-10-12 13:13:00,71.6,58.3,30.11,SSE,165,0.0,4.0,63,0.00,,,0.00,WeatherCatV1.20B785,2013-10-12 17:13:00,
2013-10-12 13:15:00,71.6,58.3,30.11,SE,139,1.0,0.0,63,0.00,,,0.00,WeatherCatV1.20B785,2013-10-12 17:15:00,
2013-10-12 13:18:00,72.0,58.2,30.10,ENE,78,1.0,2.0,62,0.00,,,0.00,WeatherCatV1.20B785,2013-10-12 17:18:00,
2013-10-12 13:20:00,72.0,58.3,30.10,SE,128,1.0,2.0,62,0.00,,,0.00,WeatherCatV1.20B785,2013-10-12 17:20:00,
2013-10-12 13:23:00,72.4,59.1,30.10,SSE,155,1.0,2.0,63,0.00,,,0.00,WeatherCatV1.20B785,2013-10-12 17:23:00,
2013-10-12 13:25:00,72.5,57.8,30.10,SE,143,1.0,2.0,60,0.00,,,0.00,WeatherCatV1.20B785,2013-10-12 17:25:00,
2013-10-12 13:28:00,73.1,57.9,30.10,SW,233,0.0,3.0,59,0.00,,,0.00,WeatherCatV1.20B785,2013-10-12 17:28:00,
2013-10-12 13:30:00,73.2,58.5,30.10,SSW,195,1.0,1.0,60,0.00,,,0.00,WeatherCatV1.20B785,2013-10-12 17:30:00,
2013-10-12 13:33:00,73.6,59.3,30.10,South,177,3.0,3.0,61,0.00,,,0.00,WeatherCatV1.20B785,2013-10-12 17:33:00,
2013-10-12 13:35:00,73.7,58.9,30.09,SSE,153,1.0,4.0,60,0.00,,,0.00,WeatherCatV1.20B785,2013-10-12 17:35:00,
2013-10-12 13:38:00,74.0,59.2,30.09,SE,141,3.0,3.0,60,0.00,,,0.00,WeatherCatV1.20B785,2013-10-12 17:38:00,
2013-10-12 13:40:00,74.1,58.8,30.09,South,177,1.0,3.0,59,0.00,,,0.00,WeatherCatV1.20B785,2013-10-12 17:40:00,
2013-10-12 13:43:00,74.4,57.7,30.09,East,88,1.0,2.0,56,0.00,,,0.00,WeatherCatV1.20B785,2013-10-12 17:43:00,
2013-10-12 13:45:00,74.4,57.7,30.09,South,188,2.0,2.0,56,0.00,,,0.00,WeatherCatV1.20B785,2013-10-12 17:45:00,
2013-10-12 13:48:00,74.2,57.5,30.09,East,101,0.0,3.0,56,0.00,,,0.00,WeatherCatV1.20B785,2013-10-12 17:48:00,
2013-10-12 13:50:00,74.1,57.9,30.09,ESE,113,1.0,0.0,57,0.00,,,0.00,WeatherCatV1.20B785,2013-10-12 17:50:00,
2013-10-12 13:53:00,74.3,57.6,30.09,ESE,110,0.0,3.0,56,0.00,,,0.00,WeatherCatV1.20B785,2013-10-12 17:53:00,
2013-10-12 13:55:00,74.4,57.7,30.09,ESE,117,1.0,3.0,56,0.00,,,0.00,WeatherCatV1.20B785,2013-10-12 17:55:00,
2013-10-12 13:58:00,74.8,56.0,30.09,SE,140,1.0,3.0,52,0.00,,,0.00,WeatherCatV1.20B785,2013-10-12 17:58:00,
2013-10-12 14:00:00,74.9,57.1,30.09,SE,138,2.0,2.0,54,0.00,,,0.00,WeatherCatV1.20B785,2013-10-12 18:00:00,
2013-10-12 14:03:00,75.1,57.8,30.09,SSE,162,4.0,4.0,55,0.00,,,0.00,WeatherCatV1.20B785,2013-10-12 18:03:00,
2013-10-12 14:05:00,75.2,57.4,30.09,SE,137,2.0,4.0,54,0.00,,,0.00,WeatherCatV1.20B785,2013-10-12 18:05:00,
2013-10-12 14:08:00,75.4,56.5,30.09,SE,134,2.0,4.0,52,0.00,,,0.00,WeatherCatV1.20B785,2013-10-12 18:08:00,
2013-10-12 14:10:00,75.5,56.6,30.09,SE,134,2.0,4.0,52,0.00,,,0.00,WeatherCatV1.20B785,2013-10-12 18:10:00,
2013-10-12 14:13:00,75.1,55.7,30.09,SSE,155,3.0,3.0,51,0.00,,,0.00,WeatherCatV1.20B785,2013-10-12 18:13:00,
2013-10-12 14:15:00,75.1,55.7,30.09,SE,129,2.0,3.0,51,0.00,,,0.00,WeatherCatV1.20B785,2013-10-12 18:15:00,
2013-10-12 14:18:00,75.2,55.3,30.09,SE,133,0.0,3.0,50,0.00,,,0.00,WeatherCatV1.20B785,2013-10-12 18:18:00,
2013-10-12 14:20:00,75.2,54.1,30.08,SE,130,2.0,2.0,48,0.00,,,0.00,WeatherCatV1.20B785,2013-10-12 18:20:00,
2013-10-12 14:23:00,75.4,54.3,30.08,SE,133,3.0,4.0,48,0.00,,,0.00,WeatherCatV1.20B785,2013-10-12 18:23:00,
2013-10-12 14:25:00,75.4,54.9,30.08,ESE,119,2.0,4.0,49,0.00,,,0.00,WeatherCatV1.20B785,2013-10-12 18:25:00,
2013-10-12 14:28:00,75.5,55.0,30.08,East,97,1.0,2.0,49,0.00,,,0.00,WeatherCatV1.20B785,2013-10-12 18:28:00,
2013-10-12 14:30:00,75.6,55.1,30.08,ESE,118,1.0,2.0,49,0.00,,,0.00,WeatherCatV1.20B785,2013-10-12 18:30:00,
2013-10-12 14:33:00,76.1,57.2,30.08,ESE,113,1.0,2.0,52,0.00,,,0.00,WeatherCatV1.20B785,2013-10-12 18:33:00,
2013-10-12 14:35:00,76.3,55.7,30.08,ESE,119,1.0,3.0,49,0.00,,,0.00,WeatherCatV1.20B785,2013-10-12 18:35:00,
2013-10-12 14:38:00,76.1,55.5,30.08,SE,133,0.0,4.0,49,0.00,,,0.00,WeatherCatV1.20B785,2013-10-12 18:38:00,
2013-10-12 14:40:00,76.1,56.6,30.08,ESE,123,1.0,2.0,51,0.00,,,0.00,WeatherCatV1.20B785,2013-10-12 18:40:00,
2013-10-12 14:43:00,76.2,55.0,30.08,ESE,108,1.0,2.0,48,0.00,,,0.00,WeatherCatV1.20B785,2013-10-12 18:43:00,
2013-10-12 14:45:00,76.2,55.1,30.08,ESE,119,2.0,3.0,48,0.00,,,0.00,WeatherCatV1.20B785,2013-10-12 18:45:00,
2013-10-12 14:48:00,76.4,55.8,30.08,SSE,158,2.0,3.0,49,0.00,,,0.00,WeatherCatV1.20B785,2013-10-12 18:48:00,
2013-10-12 14:50:00,76.4,55.8,30.08,SE,142,2.0,6.0,49,0.00,,,0.00,WeatherCatV1.20B785,2013-10-12 18:50:00,
2013-10-12 14:53:00,76.6,55.4,30.08,East,84,3.0,3.0,48,0.00,,,0.00,WeatherCatV1.20B785,2013-10-12 18:53:00,
2013-10-12 14:55:00,76.6,55.4,30.08,SE,137,2.0,3.0,48,0.00,,,0.00,WeatherCatV1.20B785,2013-10-12 18:55:00,
2013-10-12 14:58:00,76.4,55.2,30.08,ENE,71,2.0,4.0,48,0.00,,,0.00,WeatherCatV1.20B785,2013-10-12 18:58:00,
2013-10-12 15:00:00,76.4,55.2,30.08,ESE,113,2.0,4.0,48,0.00,,,0.00,WeatherCatV1.20B785,2013-10-12 19:00:00,
2013-10-12 15:03:00,76.2,55.6,30.08,ESE,122,1.0,2.0,49,0.00,,,0.00,WeatherCatV1.20B785,2013-10-12 19:03:00,
2013-10-12 15:05:00,76.2,55.6,30.08,ESE,120,2.0,2.0,49,0.00,,,0.00,WeatherCatV1.20B785,2013-10-12 19:05:00,
2013-10-12 15:08:00,76.1,56.1,30.08,SE,132,1.0,4.0,50,0.00,,,0.00,WeatherCatV1.20B785,2013-10-12 19:08:00,
2013-10-12 15:10:00,76.2,56.2,30.08,SE,128,2.0,4.0,50,0.00,,,0.00,WeatherCatV1.20B785,2013-10-12 19:10:00,
2013-10-12 15:13:00,76.2,55.0,30.08,ESE,121,1.0,3.0,48,0.00,,,0.00,WeatherCatV1.20B785,2013-10-12 19:13:00,
2013-10-12 15:15:00,76.1,55.0,30.08,SE,129,2.0,3.0,48,0.00,,,0.00,WeatherCatV1.20B785,2013-10-12 19:15:00,
2013-10-12 15:18:00,76.1,55.0,30.08,SE,145,4.0,9.0,48,0.00,,,0.00,WeatherCatV1.20B785,2013-10-12 19:18:00,
2013-10-12 15:20:00,76.1,54.4,30.08,ESE,122,2.0,9.0,47,0.00,,,0.00,WeatherCatV1.20B785,2013-10-12 19:20:00,
2013-10-12 15:23:00,75.9,55.3,30.08,ESE,122,2.0,3.0,49,0.00,,,0.00,WeatherCatV1.20B785,2013-10-12 19:23:00,
2013-10-12 15:25:00,75.9,55.3,30.08,SE,132,2.0,3.0,49,0.00,,,0.00,WeatherCatV1.20B785,2013-10-12 19:25:00,
2013-10-12 15:28:00,76.0,56.5,30.07,ESE,108,1.0,6.0,51,0.00,,,0.00,WeatherCatV1.20B785,2013-10-12 19:28:00,
2013-10-12 15:30:00,76.1,56.6,30.07,SE,136,2.0,6.0,51,0.00,,,0.00,WeatherCatV1.20B785,2013-10-12 19:30:00,
2013-10-12 15:33:00,75.9,57.0,30.07,SE,139,1.0,5.0,52,0.00,,,0.00,WeatherCatV1.20B785,2013-10-12 19:33:00,
2013-10-12 15:35:00,76.0,56.5,30.07,SE,135,2.0,3.0,51,0.00,,,0.00,WeatherCatV1.20B785,2013-10-12 19:35:00,
2013-10-12 15:38:00,76.0,56.5,30.07,SE,126,1.0,2.0,51,0.00,,,0.00,WeatherCatV1.20B785,2013-10-12 19:38:00,
2013-10-12 15:40:00,75.9,56.5,30.07,SE,124,2.0,3.0,51,0.00,,,0.00,WeatherCatV1.20B785,2013-10-12 19:40:00,
2013-10-12 15:43:00,75.8,55.8,30.07,ENE,74,1.0,3.0,50,0.00,,,0.00,WeatherCatV1.20B785,2013-10-12 19:43:00,
2013-10-12 15:45:00,75.8,55.8,30.07,SE,124,2.0,3.0,50,0.00,,,0.00,WeatherCatV1.20B785,2013-10-12 19:45:00,
2013-10-12 15:48:00,75.7,55.7,30.07,SSW,204,0.0,4.0,50,0.00,,,0.00,WeatherCatV1.20B785,2013-10-12 19:48:00,
2013-10-12 15:50:00,75.7,56.3,30.07,South,169,2.0,5.0,51,0.00,,,0.00,WeatherCatV1.20B785,2013-10-12 19:50:00,
2013-10-12 15:53:00,76.0,57.1,30.07,SSE,158,2.0,4.0,52,0.00,,,0.00,WeatherCatV1.20B785,2013-10-12 19:53:00,
2013-10-12 15:55:00,76.1,58.2,30.07,SSE,150,2.0,4.0,54,0.00,,,0.00,WeatherCatV1.20B785,2013-10-12 19:55:00,
2013-10-12 15:58:00,76.2,58.3,30.07,East,86,3.0,4.0,54,0.00,,,0.00,WeatherCatV1.20B785,2013-10-12 19:58:00,
2013-10-12 16:00:00,76.2,57.8,30.07,SE,129,2.0,2.0,53,0.00,,,0.00,WeatherCatV1.20B785,2013-10-12 20:00:00,
2013-10-12 16:03:00,76.2,57.3,30.07,SSE,161,2.0,5.0,52,0.00,,,0.00,WeatherCatV1.20B785,2013-10-12 20:03:00,
2013-10-12 16:05:00,76.2,56.7,30.07,SE,132,2.0,4.0,51,0.00,,,0.00,WeatherCatV1.20B785,2013-10-12 20:05:00,
2013-10-12 16:08:00,76.2,57.3,30.07,SE,136,1.0,2.0,52,0.00,,,0.00,WeatherCatV1.20B785,2013-10-12 20:08:00,
2013-10-12 16:10:00,76.3,57.9,30.07,SE,143,2.0,5.0,53,0.00,,,0.00,WeatherCatV1.20B785,2013-10-12 20:10:00,
2013-10-12 16:13:00,76.3,57.4,30.07,SE,134,2.0,4.0,52,0.00,,,0.00,WeatherCatV1.20B785,2013-10-12 20:13:00,
2013-10-12 16:15:00,76.3,57.9,30.07,SE,144,2.0,4.0,53,0.00,,,0.00,WeatherCatV1.20B785,2013-10-12 20:15:00,
2013-10-12 16:18:00,76.4,57.5,30.07,South,181,5.0,6.0,52,0.00,,,0.00,WeatherCatV1.20B785,2013-10-12 20:18:00,
2013-10-12 16:20:00,76.4,57.5,30.07,SSE,165,3.0,5.0,52,0.00,,,0.00,WeatherCatV1.20B785,2013-10-12 20:20:00,
2013-10-12 16:23:00,76.4,56.4,30.07,SSE,156,0.0,1.0,50,0.00,,,0.00,WeatherCatV1.20B785,2013-10-12 20:23:00,
2013-10-12 16:25:00,76.4,57.5,30.07,SSE,148,3.0,3.0,52,0.00,,,0.00,WeatherCatV1.20B785,2013-10-12 20:25:00,
2013-10-12 16:28:00,76.4,58.0,30.07,South,169,4.0,4.0,53,0.00,,,0.00,WeatherCatV1.20B785,2013-10-12 20:28:00,
2013-10-12 16:30:00,76.4,58.0,30.07,SSE,153,2.0,4.0,53,0.00,,,0.00,WeatherCatV1.20B785,2013-10-12 20:30:00,
2013-10-12 16:33:00,76.5,57.5,30.07,SE,125,0.0,3.0,52,0.00,,,0.00,WeatherCatV1.20B785,2013-10-12 20:33:00,
2013-10-12 16:35:00,76.6,57.6,30.07,SSE,150,2.0,3.0,52,0.00,,,0.00,WeatherCatV1.20B785,2013-10-12 20:35:00,
2013-10-12 16:38:00,76.5,57.5,30.07,SSE,166,0.0,1.0,52,0.00,,,0.00,WeatherCatV1.20B785,2013-10-12 20:38:00,
2013-10-12 16:40:00,76.5,58.1,30.07,SSE,149,2.0,3.0,53,0.00,,,0.00,WeatherCatV1.20B785,2013-10-12 20:40:00,
2013-10-12 16:43:00,76.5,57.5,30.07,SE,142,0.0,2.0,52,0.00,,,0.00,WeatherCatV1.20B785,2013-10-12 20:43:00,
2013-10-12 16:45:00,76.5,58.6,30.07,SSE,151,2.0,2.0,54,0.00,,,0.00,WeatherCatV1.20B785,2013-10-12 20:45:00,
2013-10-12 16:48:00,76.7,58.8,30.07,SSE,150,2.0,2.0,54,0.00,,,0.00,WeatherCatV1.20B785,2013-10-12 20:48:00,
2013-10-12 16:50:00,76.8,58.3,30.07,SSE,159,2.0,2.0,53,0.00,,,0.00,WeatherCatV1.20B785,2013-10-12 20:50:00,
2013-10-12 16:53:00,76.8,58.3,30.07,SSE,155,2.0,2.0,53,0.00,,,0.00,WeatherCatV1.20B785,2013-10-12 20:53:00,
2013-10-12 16:55:00,76.8,57.8,30.07,SSE,153,1.0,2.0,52,0.00,,,0.00,WeatherCatV1.20B785,2013-10-12 20:55:00,
2013-10-12 16:58:00,76.8,55.6,30.07,SSE,155,1.0,3.0,48,0.00,,,0.00,WeatherCatV1.20B785,2013-10-12 20:58:00,
2013-10-12 17:00:00,76.8,56.7,30.07,SSE,153,1.0,5.0,50,0.00,,,0.00,WeatherCatV1.20B785,2013-10-12 21:00:00,
2013-10-12 17:03:00,76.6,56.5,30.07,SSW,205,3.0,7.0,50,0.00,,,0.00,WeatherCatV1.20B785,2013-10-12 21:03:00,
2013-10-12 17:05:00,76.6,56.5,30.07,South,178,3.0,4.0,50,0.00,,,0.00,WeatherCatV1.20B785,2013-10-12 21:05:00,
2013-10-12 17:08:00,76.7,56.6,30.07,SSE,148,2.0,4.0,50,0.00,,,0.00,WeatherCatV1.20B785,2013-10-12 21:08:00,
2013-10-12 17:10:00,76.6,55.4,30.07,South,170,3.0,5.0,48,0.00,,,0.00,WeatherCatV1.20B785,2013-10-12 21:10:00,
2013-10-12 17:13:00,76.2,55.0,30.07,SE,139,2.0,6.0,48,0.00,,,0.00,WeatherCatV1.20B785,2013-10-12 21:13:00,
2013-10-12 17:15:00,76.1,55.5,30.07,SSE,155,3.0,3.0,49,0.00,,,0.00,WeatherCatV1.20B785,2013-10-12 21:15:00,
2013-10-12 17:18:00,75.8,55.3,30.07,SSE,155,4.0,4.0,49,0.00,,,0.00,WeatherCatV1.20B785,2013-10-12 21:18:00,
2013-10-12 17:20:00,75.7,54.6,30.07,SSE,149,3.0,5.0,48,0.00,,,0.00,WeatherCatV1.20B785,2013-10-12 21:20:00,
2013-10-12 17:23:00,75.6,55.6,30.07,SSE,148,3.0,3.0,50,0.00,,,0.00,WeatherCatV1.20B785,2013-10-12 21:23:00,
2013-10-12 17:25:00,75.5,55.5,30.07,SSE,148,3.0,4.0,50,0.00,,,0.00,WeatherCatV1.20B785,2013-10-12 21:25:00,
2013-10-12 17:28:00,75.4,55.5,30.07,SE,136,1.0,3.0,50,0.00,,,0.00,WeatherCatV1.20B785,2013-10-12 21:28:00,
2013-10-12 17:30:00,75.4,55.5,30.07,SE,146,3.0,3.0,50,0.00,,,0.00,WeatherCatV1.20B785,2013-10-12 21:30:00,
2013-10-12 17:33:00,75.3,56.4,30.07,SSE,165,1.0,3.0,52,0.00,,,0.00,WeatherCatV1.20B785,2013-10-12 21:33:00,
2013-10-12 17:35:00,75.3,56.4,30.07,SSE,157,2.0,2.0,52,0.00,,,0.00,WeatherCatV1.20B785,2013-10-12 21:35:00,
2013-10-12 17:38:00,75.0,55.1,30.07,SSE,160,2.0,4.0,50,0.00,,,0.00,WeatherCatV1.20B785,2013-10-12 21:38:00,
2013-10-12 17:40:00,75.0,56.2,30.07,SSE,165,1.0,2.0,52,0.00,,,0.00,WeatherCatV1.20B785,2013-10-12 21:40:00,
2013-10-12 17:43:00,74.9,56.1,30.07,SSW,197,1.0,1.0,52,0.00,,,0.00,WeatherCatV1.20B785,2013-10-12 21:43:00,
2013-10-12 17:45:00,74.9,56.1,30.07,South,190,1.0,2.0,52,0.00,,,0.00,WeatherCatV1.20B785,2013-10-12 21:45:00,
2013-10-12 17:48:00,74.7,55.3,30.07,South,170,2.0,4.0,51,0.00,,,0.00,WeatherCatV1.20B785,2013-10-12 21:48:00,
2013-10-12 17:50:00,74.6,55.8,30.07,South,186,2.0,2.0,52,0.00,,,0.00,WeatherCatV1.20B785,2013-10-12 21:50:00,
2013-10-12 17:53:00,74.4,55.6,30.07,SSW,205,1.0,2.0,52,0.00,,,0.00,WeatherCatV1.20B785,2013-10-12 21:53:00,
2013-10-12 17:55:00,74.3,56.0,30.07,South,183,2.0,2.0,53,0.00,,,0.00,WeatherCatV1.20B785,2013-10-12 21:55:00,
2013-10-12 17:58:00,73.9,56.2,30.07,South,188,1.0,2.0,54,0.00,,,0.00,WeatherCatV1.20B785,2013-10-12 21:58:00,
2013-10-12 18:00:00,73.8,56.1,30.08,SSW,199,2.0,2.0,54,0.00,,,0.00,WeatherCatV1.20B785,2013-10-12 22:00:00,
2013-10-12 18:03:00,73.3,56.1,30.08,WSW,238,3.0,3.0,55,0.00,,,0.00,WeatherCatV1.20B785,2013-10-12 22:03:00,
2013-10-12 18:05:00,73.2,57.0,30.08,SSW,206,2.0,3.0,57,0.00,,,0.00,WeatherCatV1.20B785,2013-10-12 22:05:00,
2013-10-12 18:08:00,72.3,56.2,30.08,SW,224,0.0,3.0,57,0.00,,,0.00,WeatherCatV1.20B785,2013-10-12 22:08:00,
2013-10-12 18:10:00,72.4,56.3,30.08,SW,215,2.0,3.0,57,0.00,,,0.00,WeatherCatV1.20B785,2013-10-12 22:10:00,
2013-10-12 18:13:00,71.3,55.8,30.08,SSW,209,0.0,3.0,58,0.00,,,0.00,WeatherCatV1.20B785,2013-10-12 22:13:00,
2013-10-12 18:15:00,71.4,56.3,30.08,SW,221,1.0,2.0,59,0.00,,,0.00,WeatherCatV1.20B785,2013-10-12 22:15:00,
2013-10-12 18:18:00,70.1,56.0,30.08,SSW,198,0.0,1.0,61,0.00,,,0.00,WeatherCatV1.20B785,2013-10-12 22:18:00,
2013-10-12 18:20:00,70.2,56.1,30.08,SW,224,1.0,1.0,61,0.00,,,0.00,WeatherCatV1.20B785,2013-10-12 22:20:00,
2013-10-12 18:23:00,69.0,56.3,30.09,SW,227,0.0,2.0,64,0.00,,,0.00,WeatherCatV1.20B785,2013-10-12 22:23:00,
2013-10-12 18:25:00,69.0,56.3,30.09,SW,224,1.0,2.0,64,0.00,,,0.00,WeatherCatV1.20B785,2013-10-12 22:25:00,
2013-10-12 18:28:00,67.7,56.3,30.09,SW,224,0.0,1.0,67,0.00,,,0.00,WeatherCatV1.20B785,2013-10-12 22:28:00,
2013-10-12 18:30:00,67.8,56.4,30.09,SW,225,0.0,1.0,67,0.00,,,0.00,WeatherCatV1.20B785,2013-10-12 22:30:00,
2013-10-12 18:33:00,66.9,56.0,30.09,SW,225,0.0,1.0,68,0.00,,,0.00,WeatherCatV1.20B785,2013-10-12 22:33:00,
2013-10-12 18:35:00,67.0,56.1,30.09,SW,225,0.0,1.0,68,0.00,,,0.00,WeatherCatV1.20B785,2013-10-12 22:35:00,
2013-10-12 18:38:00,66.2,55.7,30.09,SSW,212,0.0,1.0,69,0.00,,,0.00,WeatherCatV1.20B785,2013-10-12 22:38:00,
2013-10-12 18:40:00,66.2,55.7,30.09,SW,217,0.0,0.0,69,0.00,,,0.00,WeatherCatV1.20B785,2013-10-12 22:40:00,
2013-10-12 18:43:00,65.4,55.3,30.09,SSW,208,0.0,0.0,70,0.00,,,0.00,WeatherCatV1.20B785,2013-10-12 22:43:00,
2013-10-12 18:45:00,65.4,55.3,30.09,SSW,212,0.0,0.0,70,0.00,,,0.00,WeatherCatV1.20B785,2013-10-12 22:45:00,
2013-10-12 18:48:00,64.5,55.3,30.09,SSW,198,0.0,1.0,72,0.00,,,0.00,WeatherCatV1.20B785,2013-10-12 22:48:00,
2013-10-12 18:50:00,64.5,55.3,30.09,SSW,206,0.0,1.0,72,0.00,,,0.00,WeatherCatV1.20B785,2013-10-12 22:50:00,
2013-10-12 18:53:00,63.7,55.2,30.09,SSW,200,0.0,0.0,74,0.00,,,0.00,WeatherCatV1.20B785,2013-10-12 22:53:00,
2013-10-12 18:55:00,63.7,54.9,30.09,SSW,202,0.0,0.0,73,0.00,,,0.00,WeatherCatV1.20B785,2013-10-12 22:55:00,
2013-10-12 18:58:00,63.0,55.0,30.09,South,185,0.0,1.0,75,0.00,,,0.00,WeatherCatV1.20B785,2013-10-12 22:58:00,
2013-10-12 19:00:00,63.0,55.0,30.09,SSW,199,0.0,1.0,75,0.00,,,0.00,WeatherCatV1.20B785,2013-10-12 23:00:00,
2013-10-12 19:03:00,62.4,55.1,30.09,WSW,238,0.0,1.0,77,0.00,,,0.00,WeatherCatV1.20B785,2013-10-12 23:03:00,
2013-10-12 19:05:00,62.4,55.1,30.09,SSW,207,0.0,1.0,77,0.00,,,0.00,WeatherCatV1.20B785,2013-10-12 23:05:00,
2013-10-12 19:08:00,61.9,55.0,30.10,SSW,213,0.0,2.0,78,0.00,,,0.00,WeatherCatV1.20B785,2013-10-12 23:08:00,
2013-10-12 19:10:00,61.9,55.0,30.10,SW,216,0.0,1.0,78,0.00,,,0.00,WeatherCatV1.20B785,2013-10-12 23:10:00,
2013-10-12 19:13:00,62.1,55.2,30.10,SW,214,1.0,1.0,78,0.00,,,0.00,WeatherCatV1.20B785,2013-10-12 23:13:00,
2013-10-12 19:15:00,62.1,55.2,30.10,SW,216,0.0,2.0,78,0.00,,,0.00,WeatherCatV1.20B785,2013-10-12 23:15:00,
2013-10-12 19:18:00,61.7,54.8,30.10,SSW,204,0.0,2.0,78,0.00,,,0.00,WeatherCatV1.20B785,2013-10-12 23:18:00,
2013-10-12 19:20:00,61.8,54.9,30.10,South,190,1.0,2.0,78,0.00,,,0.00,WeatherCatV1.20B785,2013-10-12 23:20:00,